MUVR/VRA METAR and TAF weather

Enter ICAO airport designator
Station Type Date Time Source
MUVR METAR 2020/07/12 02:50 UTC NOAA

MUVR 120250Z VRB03KT 8000 FEW020 24/23 Q1017


Station Type Date Time Source
MUVR Decoded METAR 2020/07/12 02:50 UTC NOAA

Varadero, Matanzas, Cuba (MUVR) 23-08N 081-17W 3M
Jul 11, 2020 - 10:50 PM EDT / 2020.07.12 0250 UTC
Wind: Variable at 3 MPH (3 KT):0
Visibility: 4 mile(s):0
Sky conditions: mostly clear
Temperature: 75 F (24 C)
Dew Point: 73 F (23 C)
Relative Humidity: 94%
Pressure (altimeter): 30.03 in. Hg (1017 hPa)
ob: MUVR 120250Z VRB03KT 8000 FEW020 24/23 Q1017
cycle: 3

Station Type Date Time Source
MUVR TAF 2020/07/11 18:03 UTC NOAA

TAF MUVR 111700Z 1118/1218 34007KT 9000 SCT020
TEMPO 1118/1124 VRB10KT 5000 TSRA SCT018CB BKN020
BECMG 1201/1203 VRB03KT
BECMG 1215/1217 03010KT

Example: see airport list